sensor_id;sensor_type;location;lat;lon;timestamp;P1;durP1;ratioP1;P2;durP2;ratioP2
18140;SDS011;9196;49.194;12.526;2023-08-12T00:01:09;5.07;;;4.27;;
18140;SDS011;9196;49.194;12.526;2023-08-12T00:03:36;7.13;;;4.80;;
18140;SDS011;9196;49.194;12.526;2023-08-12T00:06:03;4.60;;;4.20;;
18140;SDS011;9196;49.194;12.526;2023-08-12T00:08:31;4.47;;;4.17;;
18140;SDS011;9196;49.194;12.526;2023-08-12T00:10:57;3.83;;;3.57;;
18140;SDS011;9196;49.194;12.526;2023-08-12T00:13:24;5.93;;;3.83;;
18140;SDS011;9196;49.194;12.526;2023-08-12T00:15:51;4.10;;;3.70;;
18140;SDS011;9196;49.194;12.526;2023-08-12T00:18:20;4.33;;;3.93;;
18140;SDS011;9196;49.194;12.526;2023-08-12T00:20:48;6.57;;;3.90;;
18140;SDS011;9196;49.194;12.526;2023-08-12T00:23:15;8.00;;;3.27;;
18140;SDS011;9196;49.194;12.526;2023-08-12T00:25:42;4.27;;;3.97;;
18140;SDS011;9196;49.194;12.526;2023-08-12T00:28:09;4.37;;;3.90;;
18140;SDS011;9196;49.194;12.526;2023-08-12T00:30:35;3.73;;;3.43;;
18140;SDS011;9196;49.194;12.526;2023-08-12T00:33:02;3.67;;;3.37;;
18140;SDS011;9196;49.194;12.526;2023-08-12T00:35:31;6.90;;;4.60;;
18140;SDS011;9196;49.194;12.526;2023-08-12T00:37:57;4.30;;;4.00;;
18140;SDS011;9196;49.194;12.526;2023-08-12T00:40:25;5.30;;;3.23;;
18140;SDS011;9196;49.194;12.526;2023-08-12T00:42:52;4.03;;;3.73;;
18140;SDS011;9196;49.194;12.526;2023-08-12T00:45:19;3.93;;;3.60;;
18140;SDS011;9196;49.194;12.526;2023-08-12T00:47:46;4.00;;;3.80;;
18140;SDS011;9196;49.194;12.526;2023-08-12T00:50:13;5.30;;;3.80;;
18140;SDS011;9196;49.194;12.526;2023-08-12T00:52:42;4.03;;;3.73;;
18140;SDS011;9196;49.194;12.526;2023-08-12T00:55:10;4.33;;;4.07;;
18140;SDS011;9196;49.194;12.526;2023-08-12T00:57:37;3.93;;;3.73;;
18140;SDS011;9196;49.194;12.526;2023-08-12T01:00:04;4.43;;;4.07;;
18140;SDS011;9196;49.194;12.526;2023-08-12T01:02:33;5.17;;;4.67;;
18140;SDS011;9196;49.194;12.526;2023-08-12T01:05:00;4.50;;;4.10;;
18140;SDS011;9196;49.194;12.526;2023-08-12T01:07:26;3.87;;;3.50;;
18140;SDS011;9196;49.194;12.526;2023-08-12T01:09:55;5.73;;;4.50;;
18140;SDS011;9196;49.194;12.526;2023-08-12T01:12:24;4.20;;;3.80;;
18140;SDS011;9196;49.194;12.526;2023-08-12T01:14:56;6.23;;;3.90;;
18140;SDS011;9196;49.194;12.526;2023-08-12T01:17:28;3.60;;;3.40;;
18140;SDS011;9196;49.194;12.526;2023-08-12T01:19:57;4.90;;;4.27;;
18140;SDS011;9196;49.194;12.526;2023-08-12T01:22:26;3.63;;;3.43;;
18140;SDS011;9196;49.194;12.526;2023-08-12T01:24:58;3.63;;;3.33;;
18140;SDS011;9196;49.194;12.526;2023-08-12T01:27:25;4.00;;;3.70;;
18140;SDS011;9196;49.194;12.526;2023-08-12T01:29:52;3.97;;;3.77;;
18140;SDS011;9196;49.194;12.526;2023-08-12T01:32:21;3.87;;;3.57;;
18140;SDS011;9196;49.194;12.526;2023-08-12T01:34:53;3.90;;;3.60;;
18140;SDS011;9196;49.194;12.526;2023-08-12T01:37:24;5.03;;;4.20;;
18140;SDS011;9196;49.194;12.526;2023-08-12T01:39:54;4.40;;;4.00;;
18140;SDS011;9196;49.194;12.526;2023-08-12T01:42:23;4.80;;;4.37;;
18140;SDS011;9196;49.194;12.526;2023-08-12T01:44:51;3.60;;;3.40;;
18140;SDS011;9196;49.194;12.526;2023-08-12T01:47:18;4.43;;;3.60;;
18140;SDS011;9196;49.194;12.526;2023-08-12T01:49:45;4.00;;;3.70;;
18140;SDS011;9196;49.194;12.526;2023-08-12T01:52:11;6.10;;;3.63;;
18140;SDS011;9196;49.194;12.526;2023-08-12T01:54:38;7.23;;;5.30;;
18140;SDS011;9196;49.194;12.526;2023-08-12T01:57:05;3.70;;;3.40;;
18140;SDS011;9196;49.194;12.526;2023-08-12T01:59:34;3.83;;;3.53;;
18140;SDS011;9196;49.194;12.526;2023-08-12T02:02:01;4.00;;;3.60;;
18140;SDS011;9196;49.194;12.526;2023-08-12T02:04:29;5.00;;;3.07;;
18140;SDS011;9196;49.194;12.526;2023-08-12T02:06:56;4.03;;;3.63;;
18140;SDS011;9196;49.194;12.526;2023-08-12T02:09:23;4.00;;;3.70;;
18140;SDS011;9196;49.194;12.526;2023-08-12T02:11:49;3.80;;;3.50;;
18140;SDS011;9196;49.194;12.526;2023-08-12T02:14:16;7.33;;;3.90;;
18140;SDS011;9196;49.194;12.526;2023-08-12T02:16:44;3.83;;;3.30;;
18140;SDS011;9196;49.194;12.526;2023-08-12T02:19:11;3.10;;;2.90;;
18140;SDS011;9196;49.194;12.526;2023-08-12T02:21:38;3.40;;;3.20;;
18140;SDS011;9196;49.194;12.526;2023-08-12T02:24:05;3.83;;;3.53;;
18140;SDS011;9196;49.194;12.526;2023-08-12T02:26:33;3.07;;;2.87;;
18140;SDS011;9196;49.194;12.526;2023-08-12T02:29:00;2.93;;;2.80;;
18140;SDS011;9196;49.194;12.526;2023-08-12T02:31:26;3.77;;;3.47;;
18140;SDS011;9196;49.194;12.526;2023-08-12T02:33:55;3.60;;;3.37;;
18140;SDS011;9196;49.194;12.526;2023-08-12T02:36:22;3.40;;;3.20;;
18140;SDS011;9196;49.194;12.526;2023-08-12T02:38:48;3.33;;;3.13;;
18140;SDS011;9196;49.194;12.526;2023-08-12T02:41:15;3.77;;;3.50;;
18140;SDS011;9196;49.194;12.526;2023-08-12T02:43:42;3.70;;;3.43;;
18140;SDS011;9196;49.194;12.526;2023-08-12T02:46:09;4.07;;;3.37;;
18140;SDS011;9196;49.194;12.526;2023-08-12T02:48:36;3.33;;;3.13;;
18140;SDS011;9196;49.194;12.526;2023-08-12T02:51:04;4.30;;;4.00;;
18140;SDS011;9196;49.194;12.526;2023-08-12T02:53:30;4.33;;;3.90;;
18140;SDS011;9196;49.194;12.526;2023-08-12T02:55:57;3.80;;;3.30;;
18140;SDS011;9196;49.194;12.526;2023-08-12T02:58:24;3.80;;;3.50;;
18140;SDS011;9196;49.194;12.526;2023-08-12T03:00:51;3.73;;;3.43;;
18140;SDS011;9196;49.194;12.526;2023-08-12T03:03:20;3.83;;;3.60;;
18140;SDS011;9196;49.194;12.526;2023-08-12T03:05:47;6.53;;;3.60;;
18140;SDS011;9196;49.194;12.526;2023-08-12T03:08:15;3.70;;;3.43;;
18140;SDS011;9196;49.194;12.526;2023-08-12T03:10:42;4.47;;;4.17;;
18140;SDS011;9196;49.194;12.526;2023-08-12T03:13:10;3.23;;;3.03;;
18140;SDS011;9196;49.194;12.526;2023-08-12T03:15:38;4.37;;;3.97;;
18140;SDS011;9196;49.194;12.526;2023-08-12T03:18:05;4.70;;;3.07;;
18140;SDS011;9196;49.194;12.526;2023-08-12T03:20:31;3.30;;;3.10;;
18140;SDS011;9196;49.194;12.526;2023-08-12T03:22:58;13.40;;;3.70;;
18140;SDS011;9196;49.194;12.526;2023-08-12T03:25:26;3.60;;;3.33;;
18140;SDS011;9196;49.194;12.526;2023-08-12T03:27:53;4.87;;;4.43;;
18140;SDS011;9196;49.194;12.526;2023-08-12T03:30:20;3.90;;;3.60;;
18140;SDS011;9196;49.194;12.526;2023-08-12T03:32:47;3.90;;;3.60;;
18140;SDS011;9196;49.194;12.526;2023-08-12T03:35:14;9.10;;;3.77;;
18140;SDS011;9196;49.194;12.526;2023-08-12T03:37:41;3.53;;;3.33;;
18140;SDS011;9196;49.194;12.526;2023-08-12T03:40:08;3.93;;;3.63;;
18140;SDS011;9196;49.194;12.526;2023-08-12T03:42:36;4.33;;;4.03;;
18140;SDS011;9196;49.194;12.526;2023-08-12T03:45:04;3.87;;;3.67;;
18140;SDS011;9196;49.194;12.526;2023-08-12T03:47:31;3.90;;;3.60;;
18140;SDS011;9196;49.194;12.526;2023-08-12T03:49:58;4.33;;;4.03;;
18140;SDS011;9196;49.194;12.526;2023-08-12T03:52:25;3.90;;;3.63;;
18140;SDS011;9196;49.194;12.526;2023-08-12T03:54:52;12.63;;;4.00;;
18140;SDS011;9196;49.194;12.526;2023-08-12T03:57:19;4.37;;;3.97;;
18140;SDS011;9196;49.194;12.526;2023-08-12T03:59:47;4.33;;;3.87;;
18140;SDS011;9196;49.194;12.526;2023-08-12T04:02:13;3.60;;;3.40;;
18140;SDS011;9196;49.194;12.526;2023-08-12T04:04:40;4.50;;;3.50;;
18140;SDS011;9196;49.194;12.526;2023-08-12T04:07:08;4.30;;;4.00;;
18140;SDS011;9196;49.194;12.526;2023-08-12T04:09:35;4.30;;;4.00;;
18140;SDS011;9196;49.194;12.526;2023-08-12T04:12:02;4.30;;;3.30;;
18140;SDS011;9196;49.194;12.526;2023-08-12T04:14:29;3.67;;;3.47;;
18140;SDS011;9196;49.194;12.526;2023-08-12T04:16:57;3.53;;;3.23;;
18140;SDS011;9196;49.194;12.526;2023-08-12T04:19:24;3.50;;;3.20;;
18140;SDS011;9196;49.194;12.526;2023-08-12T04:21:51;3.53;;;3.33;;
18140;SDS011;9196;49.194;12.526;2023-08-12T04:24:18;9.70;;;3.30;;
18140;SDS011;9196;49.194;12.526;2023-08-12T04:26:45;4.20;;;2.90;;
18140;SDS011;9196;49.194;12.526;2023-08-12T04:29:11;3.07;;;2.87;;
18140;SDS011;9196;49.194;12.526;2023-08-12T04:31:38;10.03;;;6.70;;
18140;SDS011;9196;49.194;12.526;2023-08-12T04:34:08;8.47;;;6.07;;
18140;SDS011;9196;49.194;12.526;2023-08-12T04:36:35;5.90;;;4.23;;
18140;SDS011;9196;49.194;12.526;2023-08-12T04:39:02;4.07;;;3.77;;
18140;SDS011;9196;49.194;12.526;2023-08-12T04:41:29;4.17;;;3.67;;
18140;SDS011;9196;49.194;12.526;2023-08-12T04:43:56;3.57;;;3.27;;
18140;SDS011;9196;49.194;12.526;2023-08-12T04:46:22;7.37;;;3.90;;
18140;SDS011;9196;49.194;12.526;2023-08-12T04:48:49;3.70;;;3.37;;
18140;SDS011;9196;49.194;12.526;2023-08-12T04:51:17;8.00;;;5.47;;
18140;SDS011;9196;49.194;12.526;2023-08-12T04:53:44;6.40;;;4.60;;
18140;SDS011;9196;49.194;12.526;2023-08-12T04:56:11;5.87;;;4.13;;
18140;SDS011;9196;49.194;12.526;2023-08-12T04:58:38;4.07;;;3.83;;
18140;SDS011;9196;49.194;12.526;2023-08-12T05:01:04;13.40;;;4.03;;
18140;SDS011;9196;49.194;12.526;2023-08-12T05:03:31;4.40;;;4.00;;
18140;SDS011;9196;49.194;12.526;2023-08-12T05:05:58;4.33;;;3.93;;
18140;SDS011;9196;49.194;12.526;2023-08-12T05:08:26;4.50;;;4.20;;
18140;SDS011;9196;49.194;12.526;2023-08-12T05:10:53;3.50;;;3.30;;
18140;SDS011;9196;49.194;12.526;2023-08-12T05:13:20;4.97;;;3.93;;
18140;SDS011;9196;49.194;12.526;2023-08-12T05:15:48;5.50;;;4.53;;
18140;SDS011;9196;49.194;12.526;2023-08-12T05:18:15;5.43;;;4.43;;
18140;SDS011;9196;49.194;12.526;2023-08-12T05:20:42;6.20;;;4.10;;
18140;SDS011;9196;49.194;12.526;2023-08-12T05:23:09;5.13;;;4.73;;
18140;SDS011;9196;49.194;12.526;2023-08-12T05:25:38;5.90;;;5.40;;
18140;SDS011;9196;49.194;12.526;2023-08-12T05:28:05;5.20;;;4.80;;
18140;SDS011;9196;49.194;12.526;2023-08-12T05:30:33;4.37;;;3.97;;
18140;SDS011;9196;49.194;12.526;2023-08-12T05:33:00;5.80;;;5.40;;
18140;SDS011;9196;49.194;12.526;2023-08-12T05:35:27;5.00;;;4.23;;
18140;SDS011;9196;49.194;12.526;2023-08-12T05:37:54;4.73;;;4.33;;
18140;SDS011;9196;49.194;12.526;2023-08-12T05:40:21;5.47;;;5.03;;
18140;SDS011;9196;49.194;12.526;2023-08-12T05:42:49;7.23;;;5.17;;
18140;SDS011;9196;49.194;12.526;2023-08-12T05:45:16;5.23;;;4.73;;
18140;SDS011;9196;49.194;12.526;2023-08-12T05:47:43;6.13;;;5.47;;
18140;SDS011;9196;49.194;12.526;2023-08-12T05:50:09;4.67;;;4.27;;
18140;SDS011;9196;49.194;12.526;2023-08-12T05:52:36;6.40;;;4.73;;
18140;SDS011;9196;49.194;12.526;2023-08-12T05:55:03;4.80;;;4.50;;
18140;SDS011;9196;49.194;12.526;2023-08-12T05:57:31;3.87;;;3.67;;
18140;SDS011;9196;49.194;12.526;2023-08-12T05:59:59;5.13;;;3.90;;
18140;SDS011;9196;49.194;12.526;2023-08-12T06:02:26;4.53;;;4.23;;
18140;SDS011;9196;49.194;12.526;2023-08-12T06:04:53;5.33;;;4.10;;
18140;SDS011;9196;49.194;12.526;2023-08-12T06:07:19;3.50;;;3.30;;
18140;SDS011;9196;49.194;12.526;2023-08-12T06:09:48;4.13;;;3.83;;
18140;SDS011;9196;49.194;12.526;2023-08-12T06:12:15;4.43;;;4.03;;
18140;SDS011;9196;49.194;12.526;2023-08-12T06:14:42;4.50;;;3.63;;
18140;SDS011;9196;49.194;12.526;2023-08-12T06:17:10;4.57;;;3.60;;
18140;SDS011;9196;49.194;12.526;2023-08-12T06:19:36;4.70;;;4.33;;
18140;SDS011;9196;49.194;12.526;2023-08-12T06:22:03;3.70;;;3.40;;
18140;SDS011;9196;49.194;12.526;2023-08-12T06:24:30;3.80;;;3.50;;
18140;SDS011;9196;49.194;12.526;2023-08-12T06:26:57;4.17;;;3.73;;
18140;SDS011;9196;49.194;12.526;2023-08-12T06:29:24;4.63;;;3.80;;
18140;SDS011;9196;49.194;12.526;2023-08-12T06:31:51;4.50;;;3.83;;
18140;SDS011;9196;49.194;12.526;2023-08-12T06:34:20;3.83;;;3.60;;
18140;SDS011;9196;49.194;12.526;2023-08-12T06:36:47;5.93;;;3.83;;
18140;SDS011;9196;49.194;12.526;2023-08-12T06:39:14;4.07;;;3.77;;
18140;SDS011;9196;49.194;12.526;2023-08-12T06:41:40;3.23;;;3.03;;
18140;SDS011;9196;49.194;12.526;2023-08-12T06:44:07;4.30;;;3.60;;
18140;SDS011;9196;49.194;12.526;2023-08-12T06:46:34;4.80;;;3.63;;
18140;SDS011;9196;49.194;12.526;2023-08-12T06:49:01;3.30;;;3.10;;
18140;SDS011;9196;49.194;12.526;2023-08-12T06:51:29;3.90;;;3.47;;
18140;SDS011;9196;49.194;12.526;2023-08-12T06:53:56;4.20;;;3.87;;
18140;SDS011;9196;49.194;12.526;2023-08-12T06:56:22;4.03;;;3.73;;
18140;SDS011;9196;49.194;12.526;2023-08-12T06:58:49;6.33;;;4.30;;
18140;SDS011;9196;49.194;12.526;2023-08-12T07:01:16;3.93;;;3.60;;
18140;SDS011;9196;49.194;12.526;2023-08-12T07:03:43;4.07;;;3.77;;
18140;SDS011;9196;49.194;12.526;2023-08-12T07:06:10;3.97;;;3.67;;
18140;SDS011;9196;49.194;12.526;2023-08-12T07:08:38;3.63;;;3.43;;
18140;SDS011;9196;49.194;12.526;2023-08-12T07:11:04;4.70;;;3.63;;
18140;SDS011;9196;49.194;12.526;2023-08-12T07:13:32;3.43;;;3.23;;
18140;SDS011;9196;49.194;12.526;2023-08-12T07:16:00;5.43;;;3.23;;
18140;SDS011;9196;49.194;12.526;2023-08-12T07:18:27;6.27;;;3.20;;
18140;SDS011;9196;49.194;12.526;2023-08-12T07:20:54;4.63;;;4.20;;
18140;SDS011;9196;49.194;12.526;2023-08-12T07:23:23;4.77;;;4.40;;
18140;SDS011;9196;49.194;12.526;2023-08-12T07:25:51;11.30;;;4.10;;
18140;SDS011;9196;49.194;12.526;2023-08-12T07:28:18;6.00;;;3.40;;
18140;SDS011;9196;49.194;12.526;2023-08-12T07:30:45;5.67;;;3.37;;
18140;SDS011;9196;49.194;12.526;2023-08-12T07:33:11;3.50;;;3.30;;
18140;SDS011;9196;49.194;12.526;2023-08-12T07:35:38;4.20;;;3.90;;
18140;SDS011;9196;49.194;12.526;2023-08-12T07:38:06;3.40;;;3.20;;
18140;SDS011;9196;49.194;12.526;2023-08-12T07:40:33;10.83;;;3.50;;
18140;SDS011;9196;49.194;12.526;2023-08-12T07:43:01;5.33;;;3.23;;
18140;SDS011;9196;49.194;12.526;2023-08-12T07:45:28;4.83;;;3.43;;
18140;SDS011;9196;49.194;12.526;2023-08-12T07:47:55;3.60;;;3.30;;
18140;SDS011;9196;49.194;12.526;2023-08-12T07:50:22;3.83;;;3.53;;
18140;SDS011;9196;49.194;12.526;2023-08-12T07:52:49;4.03;;;2.90;;
18140;SDS011;9196;49.194;12.526;2023-08-12T07:55:17;5.43;;;3.50;;
18140;SDS011;9196;49.194;12.526;2023-08-12T07:57:44;2.87;;;2.67;;
18140;SDS011;9196;49.194;12.526;2023-08-12T08:00:13;3.00;;;2.80;;
18140;SDS011;9196;49.194;12.526;2023-08-12T08:02:40;3.67;;;3.37;;
18140;SDS011;9196;49.194;12.526;2023-08-12T08:05:07;3.03;;;2.83;;
18140;SDS011;9196;49.194;12.526;2023-08-12T08:07:34;3.70;;;3.33;;
18140;SDS011;9196;49.194;12.526;2023-08-12T08:10:01;12.30;;;2.30;;
18140;SDS011;9196;49.194;12.526;2023-08-12T08:12:27;2.40;;;2.20;;
18140;SDS011;9196;49.194;12.526;2023-08-12T08:14:54;2.70;;;2.50;;
18140;SDS011;9196;49.194;12.526;2023-08-12T08:17:22;2.63;;;2.43;;
18140;SDS011;9196;49.194;12.526;2023-08-12T08:19:49;2.40;;;2.30;;
18140;SDS011;9196;49.194;12.526;2023-08-12T08:22:16;3.30;;;2.00;;
18140;SDS011;9196;49.194;12.526;2023-08-12T08:24:43;2.50;;;2.30;;
18140;SDS011;9196;49.194;12.526;2023-08-12T08:27:10;4.97;;;2.00;;
18140;SDS011;9196;49.194;12.526;2023-08-12T08:29:38;2.00;;;1.90;;
18140;SDS011;9196;49.194;12.526;2023-08-12T08:32:05;5.23;;;2.43;;
18140;SDS011;9196;49.194;12.526;2023-08-12T08:34:33;2.30;;;2.20;;
18140;SDS011;9196;49.194;12.526;2023-08-12T08:37:00;2.53;;;1.63;;
18140;SDS011;9196;49.194;12.526;2023-08-12T08:39:27;2.40;;;1.90;;
18140;SDS011;9196;49.194;12.526;2023-08-12T08:41:54;1.80;;;1.70;;
18140;SDS011;9196;49.194;12.526;2023-08-12T08:44:22;3.13;;;1.80;;
18140;SDS011;9196;49.194;12.526;2023-08-12T08:46:49;2.07;;;1.97;;
18140;SDS011;9196;49.194;12.526;2023-08-12T08:49:19;3.20;;;1.70;;
18140;SDS011;9196;49.194;12.526;2023-08-12T08:51:48;2.27;;;2.03;;
18140;SDS011;9196;49.194;12.526;2023-08-12T08:54:16;2.10;;;2.00;;
18140;SDS011;9196;49.194;12.526;2023-08-12T08:56:43;1.70;;;1.60;;
18140;SDS011;9196;49.194;12.526;2023-08-12T08:59:10;1.80;;;1.70;;
18140;SDS011;9196;49.194;12.526;2023-08-12T09:01:37;1.87;;;1.77;;
18140;SDS011;9196;49.194;12.526;2023-08-12T09:04:05;2.07;;;1.97;;
18140;SDS011;9196;49.194;12.526;2023-08-12T09:06:33;1.53;;;1.43;;
18140;SDS011;9196;49.194;12.526;2023-08-12T09:09:04;1.87;;;1.77;;
18140;SDS011;9196;49.194;12.526;2023-08-12T09:11:34;2.17;;;2.03;;
18140;SDS011;9196;49.194;12.526;2023-08-12T09:14:01;2.27;;;2.07;;
18140;SDS011;9196;49.194;12.526;2023-08-12T09:16:28;2.00;;;1.90;;
18140;SDS011;9196;49.194;12.526;2023-08-12T09:18:55;2.23;;;1.70;;
18140;SDS011;9196;49.194;12.526;2023-08-12T09:21:22;1.33;;;1.33;;
18140;SDS011;9196;49.194;12.526;2023-08-12T09:23:49;1.60;;;1.50;;
18140;SDS011;9196;49.194;12.526;2023-08-12T09:26:17;2.20;;;1.97;;
18140;SDS011;9196;49.194;12.526;2023-08-12T09:28:45;3.10;;;1.83;;
18140;SDS011;9196;49.194;12.526;2023-08-12T09:31:21;4.67;;;2.10;;
18140;SDS011;9196;49.194;12.526;2023-08-12T09:33:50;1.93;;;1.83;;
18140;SDS011;9196;49.194;12.526;2023-08-12T09:36:17;3.37;;;1.97;;
18140;SDS011;9196;49.194;12.526;2023-08-12T09:38:44;4.10;;;2.00;;
18140;SDS011;9196;49.194;12.526;2023-08-12T09:41:12;1.83;;;1.73;;
18140;SDS011;9196;49.194;12.526;2023-08-12T09:43:41;2.30;;;2.07;;
18140;SDS011;9196;49.194;12.526;2023-08-12T09:46:10;1.77;;;1.67;;
18140;SDS011;9196;49.194;12.526;2023-08-12T09:48:38;1.70;;;1.63;;
18140;SDS011;9196;49.194;12.526;2023-08-12T09:51:05;3.33;;;1.87;;
18140;SDS011;9196;49.194;12.526;2023-08-12T09:53:32;1.80;;;1.70;;
18140;SDS011;9196;49.194;12.526;2023-08-12T09:56:00;2.13;;;2.00;;
18140;SDS011;9196;49.194;12.526;2023-08-12T09:58:32;2.10;;;1.80;;
18140;SDS011;9196;49.194;12.526;2023-08-12T10:01:03;2.17;;;1.50;;
18140;SDS011;9196;49.194;12.526;2023-08-12T10:03:30;1.80;;;1.70;;
18140;SDS011;9196;49.194;12.526;2023-08-12T10:06:00;2.10;;;1.93;;
18140;SDS011;9196;49.194;12.526;2023-08-12T10:08:28;1.80;;;1.70;;
18140;SDS011;9196;49.194;12.526;2023-08-12T10:10:55;2.00;;;1.90;;
18140;SDS011;9196;49.194;12.526;2023-08-12T10:13:22;2.70;;;2.33;;
18140;SDS011;9196;49.194;12.526;2023-08-12T10:15:49;1.80;;;1.70;;
18140;SDS011;9196;49.194;12.526;2023-08-12T10:18:17;1.87;;;1.77;;
18140;SDS011;9196;49.194;12.526;2023-08-12T10:20:46;1.80;;;1.70;;
18140;SDS011;9196;49.194;12.526;2023-08-12T10:23:15;1.90;;;1.77;;
18140;SDS011;9196;49.194;12.526;2023-08-12T10:25:43;3.23;;;1.80;;
18140;SDS011;9196;49.194;12.526;2023-08-12T10:28:11;1.57;;;1.57;;
18140;SDS011;9196;49.194;12.526;2023-08-12T10:30:39;2.17;;;2.00;;
18140;SDS011;9196;49.194;12.526;2023-08-12T10:33:07;2.53;;;1.50;;
18140;SDS011;9196;49.194;12.526;2023-08-12T10:35:43;4.77;;;1.37;;
18140;SDS011;9196;49.194;12.526;2023-08-12T10:38:11;1.57;;;1.47;;
18140;SDS011;9196;49.194;12.526;2023-08-12T10:40:40;1.60;;;1.50;;
18140;SDS011;9196;49.194;12.526;2023-08-12T10:43:07;1.73;;;1.50;;
18140;SDS011;9196;49.194;12.526;2023-08-12T10:45:44;2.90;;;1.60;;
18140;SDS011;9196;49.194;12.526;2023-08-12T10:48:17;1.80;;;1.70;;
18140;SDS011;9196;49.194;12.526;2023-08-12T10:50:48;4.50;;;1.70;;
18140;SDS011;9196;49.194;12.526;2023-08-12T10:53:23;4.87;;;1.70;;
18140;SDS011;9196;49.194;12.526;2023-08-12T10:55:55;1.50;;;1.40;;
18140;SDS011;9196;49.194;12.526;2023-08-12T10:58:27;1.33;;;1.23;;
18140;SDS011;9196;49.194;12.526;2023-08-12T11:00:55;1.40;;;1.30;;
18140;SDS011;9196;49.194;12.526;2023-08-12T11:03:23;3.37;;;1.40;;
18140;SDS011;9196;49.194;12.526;2023-08-12T11:05:51;1.47;;;1.43;;
18140;SDS011;9196;49.194;12.526;2023-08-12T11:08:23;5.60;;;1.40;;
18140;SDS011;9196;49.194;12.526;2023-08-12T11:10:53;3.07;;;1.63;;
18140;SDS011;9196;49.194;12.526;2023-08-12T11:13:22;2.03;;;1.80;;
18140;SDS011;9196;49.194;12.526;2023-08-12T11:15:49;1.50;;;1.40;;
18140;SDS011;9196;49.194;12.526;2023-08-12T11:18:17;1.53;;;1.20;;
18140;SDS011;9196;49.194;12.526;2023-08-12T11:20:45;1.60;;;1.50;;
18140;SDS011;9196;49.194;12.526;2023-08-12T11:23:14;1.30;;;1.30;;
18140;SDS011;9196;49.194;12.526;2023-08-12T11:25:42;8.50;;;1.50;;
18140;SDS011;9196;49.194;12.526;2023-08-12T11:28:10;1.63;;;1.40;;
18140;SDS011;9196;49.194;12.526;2023-08-12T11:30:39;1.67;;;1.57;;
18140;SDS011;9196;49.194;12.526;2023-08-12T11:33:08;2.30;;;1.50;;
18140;SDS011;9196;49.194;12.526;2023-08-12T11:35:35;2.70;;;1.80;;
18140;SDS011;9196;49.194;12.526;2023-08-12T11:38:03;1.30;;;1.30;;
18140;SDS011;9196;49.194;12.526;2023-08-12T11:40:33;2.43;;;1.60;;
18140;SDS011;9196;49.194;12.526;2023-08-12T11:43:01;3.57;;;1.53;;
18140;SDS011;9196;49.194;12.526;2023-08-12T11:45:29;1.50;;;1.40;;
18140;SDS011;9196;49.194;12.526;2023-08-12T11:47:56;1.73;;;1.63;;
18140;SDS011;9196;49.194;12.526;2023-08-12T11:50:23;1.90;;;1.80;;
18140;SDS011;9196;49.194;12.526;2023-08-12T11:52:51;1.77;;;1.67;;
18140;SDS011;9196;49.194;12.526;2023-08-12T11:55:18;1.53;;;1.50;;
18140;SDS011;9196;49.194;12.526;2023-08-12T11:57:47;1.70;;;1.40;;
18140;SDS011;9196;49.194;12.526;2023-08-12T12:00:14;1.50;;;1.40;;
18140;SDS011;9196;49.194;12.526;2023-08-12T12:02:45;5.43;;;1.60;;
18140;SDS011;9196;49.194;12.526;2023-08-12T12:05:14;1.87;;;1.77;;
18140;SDS011;9196;49.194;12.526;2023-08-12T12:07:41;1.60;;;1.53;;
18140;SDS011;9196;49.194;12.526;2023-08-12T12:10:12;1.80;;;1.70;;
18140;SDS011;9196;49.194;12.526;2023-08-12T12:12:39;1.70;;;1.60;;
18140;SDS011;9196;49.194;12.526;2023-08-12T12:15:08;1.50;;;1.50;;
18140;SDS011;9196;49.194;12.526;2023-08-12T12:17:38;2.00;;;1.80;;
18140;SDS011;9196;49.194;12.526;2023-08-12T12:20:06;2.13;;;2.03;;
18140;SDS011;9196;49.194;12.526;2023-08-12T12:22:35;2.63;;;1.60;;
18140;SDS011;9196;49.194;12.526;2023-08-12T12:25:05;1.70;;;1.60;;
18140;SDS011;9196;49.194;12.526;2023-08-12T12:27:33;1.90;;;1.60;;
18140;SDS011;9196;49.194;12.526;2023-08-12T12:30:00;1.73;;;1.63;;
18140;SDS011;9196;49.194;12.526;2023-08-12T12:32:28;2.80;;;1.60;;
18140;SDS011;9196;49.194;12.526;2023-08-12T12:34:55;1.67;;;1.57;;
18140;SDS011;9196;49.194;12.526;2023-08-12T12:37:22;4.83;;;2.50;;
18140;SDS011;9196;49.194;12.526;2023-08-12T12:39:49;1.97;;;1.83;;
18140;SDS011;9196;49.194;12.526;2023-08-12T12:42:15;1.90;;;1.80;;
18140;SDS011;9196;49.194;12.526;2023-08-12T12:44:42;1.80;;;1.70;;
18140;SDS011;9196;49.194;12.526;2023-08-12T12:47:09;2.40;;;1.43;;
18140;SDS011;9196;49.194;12.526;2023-08-12T12:49:38;1.60;;;1.50;;
18140;SDS011;9196;49.194;12.526;2023-08-12T12:52:06;1.80;;;1.70;;
18140;SDS011;9196;49.194;12.526;2023-08-12T12:54:33;2.00;;;1.90;;
18140;SDS011;9196;49.194;12.526;2023-08-12T12:57:00;1.60;;;1.40;;
18140;SDS011;9196;49.194;12.526;2023-08-12T12:59:27;1.80;;;1.80;;
18140;SDS011;9196;49.194;12.526;2023-08-12T13:01:53;2.80;;;2.27;;
18140;SDS011;9196;49.194;12.526;2023-08-12T13:04:20;2.10;;;2.00;;
18140;SDS011;9196;49.194;12.526;2023-08-12T13:06:48;2.20;;;2.00;;
18140;SDS011;9196;49.194;12.526;2023-08-12T13:09:15;1.97;;;1.83;;
18140;SDS011;9196;49.194;12.526;2023-08-12T13:11:42;2.37;;;1.97;;
18140;SDS011;9196;49.194;12.526;2023-08-12T13:14:09;1.70;;;1.60;;
18140;SDS011;9196;49.194;12.526;2023-08-12T13:16:36;2.80;;;1.77;;
18140;SDS011;9196;49.194;12.526;2023-08-12T13:19:03;1.97;;;1.87;;
18140;SDS011;9196;49.194;12.526;2023-08-12T13:21:30;2.40;;;2.17;;
18140;SDS011;9196;49.194;12.526;2023-08-12T13:23:58;2.00;;;1.80;;
18140;SDS011;9196;49.194;12.526;2023-08-12T13:26:26;3.13;;;2.27;;
18140;SDS011;9196;49.194;12.526;2023-08-12T13:28:53;1.93;;;1.83;;
18140;SDS011;9196;49.194;12.526;2023-08-12T13:31:20;1.60;;;1.60;;
18140;SDS011;9196;49.194;12.526;2023-08-12T13:33:46;5.03;;;1.87;;
18140;SDS011;9196;49.194;12.526;2023-08-12T13:36:13;2.00;;;1.90;;
18140;SDS011;9196;49.194;12.526;2023-08-12T13:38:40;1.90;;;1.80;;
18140;SDS011;9196;49.194;12.526;2023-08-12T13:41:08;1.70;;;1.67;;
18140;SDS011;9196;49.194;12.526;2023-08-12T13:43:35;2.40;;;2.10;;
18140;SDS011;9196;49.194;12.526;2023-08-12T13:46:02;1.73;;;1.73;;
18140;SDS011;9196;49.194;12.526;2023-08-12T13:48:29;1.70;;;1.60;;
18140;SDS011;9196;49.194;12.526;2023-08-12T13:50:56;2.27;;;2.17;;
18140;SDS011;9196;49.194;12.526;2023-08-12T13:53:23;1.87;;;1.77;;
18140;SDS011;9196;49.194;12.526;2023-08-12T13:55:50;5.30;;;2.07;;
18140;SDS011;9196;49.194;12.526;2023-08-12T13:58:18;4.00;;;2.53;;
18140;SDS011;9196;49.194;12.526;2023-08-12T14:00:45;1.63;;;1.63;;
18140;SDS011;9196;49.194;12.526;2023-08-12T14:03:12;2.07;;;1.97;;
18140;SDS011;9196;49.194;12.526;2023-08-12T14:05:39;2.27;;;2.13;;
18140;SDS011;9196;49.194;12.526;2023-08-12T14:08:06;2.27;;;2.17;;
18140;SDS011;9196;49.194;12.526;2023-08-12T14:10:33;2.53;;;1.87;;
18140;SDS011;9196;49.194;12.526;2023-08-12T14:12:59;1.87;;;1.77;;
18140;SDS011;9196;49.194;12.526;2023-08-12T14:15:27;2.20;;;2.10;;
18140;SDS011;9196;49.194;12.526;2023-08-12T14:17:54;2.27;;;2.10;;
18140;SDS011;9196;49.194;12.526;2023-08-12T14:20:21;2.10;;;2.00;;
18140;SDS011;9196;49.194;12.526;2023-08-12T14:22:48;2.00;;;1.90;;
18140;SDS011;9196;49.194;12.526;2023-08-12T14:25:15;1.80;;;1.70;;
18140;SDS011;9196;49.194;12.526;2023-08-12T14:27:42;1.70;;;1.60;;
18140;SDS011;9196;49.194;12.526;2023-08-12T14:30:09;1.90;;;1.80;;
18140;SDS011;9196;49.194;12.526;2023-08-12T14:32:38;2.33;;;2.13;;
18140;SDS011;9196;49.194;12.526;2023-08-12T14:35:05;1.80;;;1.70;;
18140;SDS011;9196;49.194;12.526;2023-08-12T14:37:32;1.97;;;1.87;;
18140;SDS011;9196;49.194;12.526;2023-08-12T14:39:59;2.60;;;1.60;;
18140;SDS011;9196;49.194;12.526;2023-08-12T14:42:28;3.10;;;1.90;;
18140;SDS011;9196;49.194;12.526;2023-08-12T14:44:54;2.47;;;2.27;;
18140;SDS011;9196;49.194;12.526;2023-08-12T14:47:21;7.20;;;1.93;;
18140;SDS011;9196;49.194;12.526;2023-08-12T14:49:49;3.40;;;2.00;;